createdAt,value
2022-10-20T00:01:04.197Z,100427.69
2022-10-20T00:03:32.268Z,100422.38
2022-10-20T00:06:10.552Z,100412.69
2022-10-20T00:08:38.889Z,100417.00
2022-10-20T00:11:07.314Z,100417.22
2022-10-20T00:13:35.227Z,100416.59
2022-10-20T00:16:03.411Z,100421.97
2022-10-20T00:18:31.012Z,100431.00
2022-10-20T00:20:58.511Z,100428.22
2022-10-20T00:23:26.208Z,100435.06
2022-10-20T00:26:05.176Z,100436.50
2022-10-20T00:28:33.161Z,100433.69
2022-10-20T00:31:00.733Z,100438.97
2022-10-20T00:33:28.189Z,100441.91
2022-10-20T00:35:59.822Z,100439.00
2022-10-20T00:38:27.272Z,100437.63
2022-10-20T00:40:54.937Z,100427.44
2022-10-20T00:43:22.970Z,100444.25
2022-10-20T00:45:56.239Z,100440.97
2022-10-20T00:48:27.604Z,100439.22
2022-10-20T00:50:56.425Z,100435.91
2022-10-20T00:53:26.786Z,100439.00
2022-10-20T00:55:55.158Z,100444.16
2022-10-20T00:58:22.659Z,100451.09
2022-10-20T01:00:53.242Z,100450.41
2022-10-20T01:03:25.159Z,100454.31
2022-10-20T01:05:52.857Z,100455.66
2022-10-20T01:08:20.232Z,100451.19
2022-10-20T01:11:14.891Z,100442.00
2022-10-20T01:14:13.422Z,100453.87
2022-10-20T01:17:12.661Z,100438.28
2022-10-20T01:20:05.077Z,100444.94
2022-10-20T01:23:09.661Z,100442.16
2022-10-20T01:25:55.258Z,100437.53
2022-10-20T01:28:41.346Z,100439.38
2022-10-20T01:31:42.944Z,100438.47
2022-10-20T01:34:53.015Z,100445.28
2022-10-20T01:37:40.555Z,100443.81
2022-10-20T01:40:45.269Z,100449.63
2022-10-20T01:43:14.398Z,100457.25
2022-10-20T01:45:44.560Z,100454.97
2022-10-20T01:48:13.489Z,100455.91
2022-10-20T01:50:41.870Z,100455.25
2022-10-20T01:53:09.436Z,100452.69
2022-10-20T01:55:38.017Z,100459.69
2022-10-20T01:58:43.174Z,100445.50
2022-10-20T02:01:29.492Z,100458.41
2022-10-20T02:03:59.707Z,100457.69
2022-10-20T02:06:45.344Z,100453.75
2022-10-20T02:09:18.128Z,100450.72
2022-10-20T02:11:51.101Z,100452.09
2022-10-20T02:14:20.520Z,100451.13
2022-10-20T02:16:59.881Z,100454.03
2022-10-20T02:19:32.388Z,100450.72
2022-10-20T02:22:00.237Z,100449.94
2022-10-20T02:24:31.268Z,100454.13
2022-10-20T02:27:01.955Z,100461.19
2022-10-20T02:29:32.661Z,100453.13
2022-10-20T02:32:00.485Z,100460.41
2022-10-20T02:34:28.000Z,100469.00
2022-10-20T02:36:58.575Z,100458.88
2022-10-20T02:39:26.608Z,100465.62
2022-10-20T02:41:54.735Z,100462.66
2022-10-20T02:44:23.034Z,100456.78
2022-10-20T02:46:50.442Z,100476.84
2022-10-20T02:49:17.880Z,100456.66
2022-10-20T02:51:45.554Z,100467.53
2022-10-20T02:54:12.956Z,100466.38
2022-10-20T02:56:40.366Z,100471.34
2022-10-20T02:59:12.989Z,100475.72
2022-10-20T03:01:41.084Z,100477.87
2022-10-20T03:04:08.950Z,100477.59
2022-10-20T03:06:36.337Z,100477.81
2022-10-20T03:09:04.123Z,100476.41
2022-10-20T03:11:31.930Z,100479.75
2022-10-20T03:13:59.364Z,100477.28
2022-10-20T03:16:26.917Z,100482.00
2022-10-20T03:18:55.487Z,100479.19
2022-10-20T03:21:25.040Z,100476.69
2022-10-20T03:23:52.439Z,100482.69
2022-10-20T03:26:20.147Z,100483.53
2022-10-20T03:28:47.651Z,100487.41
2022-10-20T03:31:15.012Z,100480.00
2022-10-20T03:33:42.746Z,100486.34
2022-10-20T03:36:10.173Z,100483.78
2022-10-20T03:38:37.632Z,100494.81
2022-10-20T03:41:05.498Z,100487.09
2022-10-20T03:43:32.995Z,100489.25
2022-10-20T03:46:08.857Z,100488.84
2022-10-20T03:48:37.199Z,100487.50
2022-10-20T03:51:05.008Z,100485.78
2022-10-20T03:53:32.820Z,100495.06
2022-10-20T03:56:05.879Z,100487.63
2022-10-20T03:58:33.314Z,100496.69
2022-10-20T04:01:01.205Z,100491.94
2022-10-20T04:03:28.882Z,100487.19
2022-10-20T04:05:56.315Z,100489.03
2022-10-20T04:08:23.732Z,100490.81
2022-10-20T04:10:51.421Z,100495.81
2022-10-20T04:13:18.861Z,100496.88
2022-10-20T04:15:46.254Z,100499.66
2022-10-20T04:18:14.071Z,100490.19
2022-10-20T04:20:44.373Z,100494.97
2022-10-20T04:23:12.387Z,100492.44
2022-10-20T04:25:45.544Z,100494.47
2022-10-20T04:28:14.305Z,100491.34
2022-10-20T04:30:42.686Z,100483.75
2022-10-20T04:33:10.875Z,100483.84
2022-10-20T04:35:38.315Z,100488.47
2022-10-20T04:38:06.097Z,100495.59
2022-10-20T04:40:33.618Z,100489.34
2022-10-20T04:43:01.285Z,100490.44
2022-10-20T04:45:29.080Z,100487.66
2022-10-20T04:47:56.605Z,100489.31
2022-10-20T04:50:24.007Z,100496.97
2022-10-20T04:53:07.879Z,100494.50
2022-10-20T04:55:35.973Z,100490.63
2022-10-20T04:58:03.666Z,100493.53
2022-10-20T05:00:31.218Z,100496.75
2022-10-20T05:02:58.751Z,100495.91
2022-10-20T05:05:26.425Z,100496.97
2022-10-20T05:07:53.842Z,100496.50
2022-10-20T05:10:21.264Z,100503.00
2022-10-20T05:12:49.027Z,100512.63
2022-10-20T05:15:16.452Z,100515.97
2022-10-20T05:17:43.834Z,100511.47
2022-10-20T05:20:11.565Z,100518.75
2022-10-20T05:22:39.270Z,100517.91
2022-10-20T05:25:31.266Z,100525.22
2022-10-20T05:27:55.021Z,100531.84
2022-10-20T05:30:22.450Z,100529.75
2022-10-20T05:32:49.888Z,100531.31
2022-10-20T05:35:17.548Z,100539.44
2022-10-20T05:37:44.968Z,100545.94
2022-10-20T05:40:12.760Z,100548.53
2022-10-20T05:42:40.520Z,100552.88
2022-10-20T05:45:08.871Z,100558.25
2022-10-20T05:47:36.313Z,100562.19
2022-10-20T05:50:04.524Z,100569.09
2022-10-20T05:52:31.954Z,100568.78
2022-10-20T05:54:59.617Z,100566.53
2022-10-20T05:57:27.303Z,100569.47
2022-10-20T05:59:54.691Z,100571.44
2022-10-20T06:02:22.297Z,100575.03
2022-10-20T06:04:49.989Z,100580.53
2022-10-20T06:07:17.440Z,100585.87
2022-10-20T06:09:44.875Z,100580.13
2022-10-20T06:12:12.577Z,100582.03
2022-10-20T06:14:39.991Z,100584.19
2022-10-20T06:17:07.491Z,100589.87
2022-10-20T06:19:35.163Z,100603.25
2022-10-20T06:22:05.865Z,100594.06
2022-10-20T06:24:35.022Z,100605.66
2022-10-20T06:27:02.444Z,100600.81
2022-10-20T06:29:29.872Z,100605.72
2022-10-20T06:31:57.577Z,100613.84
2022-10-20T06:34:25.918Z,100615.03
2022-10-20T06:36:53.466Z,100614.16
2022-10-20T06:39:22.954Z,100616.84
2022-10-20T06:41:52.889Z,100616.34
2022-10-20T06:44:22.525Z,100613.53
2022-10-20T06:46:52.445Z,100610.94
2022-10-20T06:49:20.492Z,100615.34
2022-10-20T06:51:48.248Z,100617.59
2022-10-20T06:54:15.690Z,100627.16
2022-10-20T06:56:43.242Z,100626.53
2022-10-20T06:59:11.058Z,100616.47
2022-10-20T07:01:39.398Z,100624.84
2022-10-20T07:04:10.397Z,100624.84
2022-10-20T07:06:39.854Z,100628.41
2022-10-20T07:09:09.186Z,100626.25
2022-10-20T07:11:36.729Z,100630.88
2022-10-20T07:14:04.733Z,100639.31
2022-10-20T07:16:33.803Z,100639.88
2022-10-20T07:19:02.298Z,100632.44
2022-10-20T07:21:34.982Z,100634.91
2022-10-20T07:24:06.607Z,100637.53
2022-10-20T07:26:36.290Z,100640.59
2022-10-20T07:29:04.156Z,100644.91
2022-10-20T07:31:33.330Z,100649.66
2022-10-20T07:34:12.923Z,100650.06
2022-10-20T07:36:49.319Z,100649.28
2022-10-20T07:39:17.032Z,100648.00
2022-10-20T07:41:47.300Z,100656.81
2022-10-20T07:44:15.098Z,100655.19
2022-10-20T07:46:42.868Z,100650.41
2022-10-20T07:49:43.052Z,100655.97
2022-10-20T07:51:58.221Z,100667.91
2022-10-20T07:54:25.761Z,100662.88
2022-10-20T07:56:53.294Z,100654.37
2022-10-20T07:59:21.088Z,100653.91
2022-10-20T08:01:48.595Z,100655.66
2022-10-20T08:04:16.374Z,100654.78
2022-10-20T08:06:43.824Z,100658.00
2022-10-20T08:09:11.481Z,100656.97
2022-10-20T08:11:39.158Z,100664.06
2022-10-20T08:14:06.748Z,100651.72
2022-10-20T08:16:36.741Z,100659.66
2022-10-20T08:21:46.135Z,100663.56
2022-10-20T08:24:13.886Z,100673.16
2022-10-20T08:26:41.414Z,100669.78
2022-10-20T08:29:08.960Z,100668.41
2022-10-20T08:31:36.725Z,100665.50
2022-10-20T08:34:04.358Z,100673.84
2022-10-20T08:36:31.828Z,100675.62
2022-10-20T08:39:03.489Z,100671.06
2022-10-20T08:41:55.206Z,100672.53
2022-10-20T08:44:27.397Z,100672.28
2022-10-20T08:46:55.039Z,100682.44
2022-10-20T08:49:28.104Z,100681.44
2022-10-20T08:51:55.942Z,100679.78
2022-10-20T08:54:23.408Z,100673.66
2022-10-20T08:56:50.808Z,100673.22
2022-10-20T08:59:21.430Z,100685.06
2022-10-20T09:01:49.091Z,100670.69
2022-10-20T09:04:20.497Z,100666.31
2022-10-20T09:06:53.956Z,100666.25
2022-10-20T09:09:22.310Z,100679.41
2022-10-20T09:11:50.274Z,100668.50
2022-10-20T09:14:17.740Z,100667.31
2022-10-20T09:16:59.809Z,100677.16
2022-10-20T09:19:29.124Z,100664.09
2022-10-20T09:22:03.973Z,100652.53
2022-10-20T09:24:32.058Z,100666.06
2022-10-20T09:27:39.880Z,100665.19
2022-10-20T09:30:26.049Z,100672.47
2022-10-20T09:32:53.646Z,100671.94
2022-10-20T09:35:27.995Z,100680.13
2022-10-20T09:38:18.083Z,100678.66
2022-10-20T09:41:02.590Z,100669.44
2022-10-20T09:43:30.078Z,100668.22
2022-10-20T09:46:05.230Z,100673.88
2022-10-20T09:48:42.542Z,100672.41
2022-10-20T09:51:14.857Z,100681.97
2022-10-20T09:54:02.910Z,100678.91
2022-10-20T09:56:36.773Z,100673.75
2022-10-20T09:59:21.551Z,100668.84
2022-10-20T10:01:59.247Z,100668.88
2022-10-20T10:04:34.383Z,100667.50
2022-10-20T10:07:03.791Z,100666.88
2022-10-20T10:09:37.654Z,100670.69
2022-10-20T10:12:16.716Z,100680.22
2022-10-20T10:14:52.509Z,100669.22
2022-10-20T10:17:40.453Z,100661.97
2022-10-20T10:20:35.107Z,100667.09
2022-10-20T10:23:20.937Z,100663.56
2022-10-20T10:25:50.081Z,100662.50
2022-10-20T10:28:31.727Z,100653.09
2022-10-20T10:31:22.396Z,100651.84
2022-10-20T10:33:52.601Z,100649.38
2022-10-20T10:36:34.921Z,100640.75
2022-10-20T10:39:04.740Z,100643.34
2022-10-20T10:41:59.798Z,100640.25
2022-10-20T10:44:45.717Z,100638.00
2022-10-20T10:47:28.097Z,100640.25
2022-10-20T10:50:17.320Z,100632.94
2022-10-20T10:53:19.001Z,100624.53
2022-10-20T10:56:28.245Z,100624.06
2022-10-20T10:59:37.153Z,100619.69
2022-10-20T11:02:41.907Z,100609.19
2022-10-20T11:08:16.332Z,100601.03
2022-10-20T11:11:02.541Z,100594.41
2022-10-20T11:13:36.179Z,100590.03
2022-10-20T11:16:21.800Z,100583.72
2022-10-20T11:19:24.065Z,100594.41
2022-10-20T11:22:16.320Z,100574.97
2022-10-20T11:25:17.011Z,100574.97
2022-10-20T11:27:44.852Z,100584.59
2022-10-20T11:30:20.855Z,100569.84
2022-10-20T11:33:12.263Z,100577.94
2022-10-20T11:35:54.085Z,100567.00
2022-10-20T11:38:40.196Z,100565.91
2022-10-20T11:41:34.843Z,100561.00
2022-10-20T11:44:06.516Z,100562.34
2022-10-20T11:46:35.778Z,100564.19
2022-10-20T11:49:04.474Z,100556.94
2022-10-20T11:51:31.787Z,100551.22
2022-10-20T11:54:21.092Z,100542.88
2022-10-20T11:57:13.698Z,100547.16
2022-10-20T12:00:12.258Z,100545.31
2022-10-20T12:02:46.137Z,100537.69
2022-10-20T12:05:57.896Z,100540.38
2022-10-20T12:08:34.035Z,100544.94
2022-10-20T12:11:32.511Z,100543.56
2022-10-20T12:14:15.461Z,100541.38
2022-10-20T12:16:52.158Z,100532.31
2022-10-20T12:19:25.613Z,100526.59
2022-10-20T12:21:54.328Z,100529.06
2022-10-20T12:24:54.576Z,100526.69
2022-10-20T12:27:24.200Z,100521.34
2022-10-20T12:29:54.422Z,100521.84
2022-10-20T12:32:22.065Z,100522.94
2022-10-20T12:34:54.382Z,100521.41
2022-10-20T12:37:25.279Z,100514.22
2022-10-20T12:40:07.827Z,100515.50
2022-10-20T12:42:40.440Z,100512.16
2022-10-20T12:45:22.577Z,100505.56
2022-10-20T12:47:52.447Z,100495.13
2022-10-20T12:50:38.955Z,100497.47
2022-10-20T12:53:11.791Z,100501.72
2022-10-20T12:55:41.859Z,100491.72
2022-10-20T12:58:34.272Z,100495.59
2022-10-20T13:01:10.539Z,100496.50
2022-10-20T13:03:40.140Z,100480.22
2022-10-20T13:06:22.865Z,100483.66
2022-10-20T13:09:10.575Z,100481.44
2022-10-20T13:11:38.257Z,100489.34
2022-10-20T13:14:12.171Z,100486.00
2022-10-20T13:16:44.886Z,100489.41
2022-10-20T13:19:22.190Z,100481.34
2022-10-20T13:21:50.578Z,100478.22
2022-10-20T13:24:23.731Z,100480.78
2022-10-20T13:26:57.611Z,100486.88
2022-10-20T13:29:36.314Z,100480.63
2022-10-20T13:32:12.662Z,100477.53
2022-10-20T13:35:04.450Z,100475.53
2022-10-20T13:37:45.423Z,100473.31
2022-10-20T13:40:30.961Z,100461.97
2022-10-20T13:43:11.781Z,100465.41
2022-10-20T13:46:04.082Z,100470.81
2022-10-20T13:49:07.165Z,100471.94
2022-10-20T13:51:47.522Z,100473.84
2022-10-20T13:54:28.124Z,100457.09
2022-10-20T13:56:56.084Z,100466.72
2022-10-20T14:02:01.730Z,100455.38
2022-10-20T14:04:35.870Z,100464.37
2022-10-20T14:07:22.519Z,100450.97
2022-10-20T14:09:57.274Z,100454.03
2022-10-20T14:12:26.569Z,100446.69
2022-10-20T14:15:01.470Z,100442.72
2022-10-20T14:17:29.356Z,100442.47
2022-10-20T14:20:17.753Z,100447.16
2022-10-20T14:22:45.476Z,100437.47
2022-10-20T14:25:13.266Z,100444.22
2022-10-20T14:27:41.079Z,100439.63
2022-10-20T14:30:13.940Z,100444.75
2022-10-20T14:32:43.869Z,100441.47
2022-10-20T14:35:29.939Z,100435.22
2022-10-20T14:38:02.963Z,100436.09
2022-10-20T14:40:33.596Z,100441.63
2022-10-20T14:43:04.731Z,100436.94
2022-10-20T14:48:06.213Z,100442.03
2022-10-20T14:50:40.934Z,100450.25
2022-10-20T14:53:27.440Z,100434.50
2022-10-20T14:55:55.668Z,100429.22
2022-10-20T14:58:37.137Z,100427.59
2022-10-20T15:01:15.315Z,100436.16
2022-10-20T15:03:44.538Z,100428.97
2022-10-20T15:06:17.643Z,100424.38
2022-10-20T15:08:53.692Z,100432.59
2022-10-20T15:11:23.698Z,100418.84
2022-10-20T15:13:53.405Z,100417.63
2022-10-20T15:16:45.637Z,100420.63
2022-10-20T15:19:36.420Z,100421.22
2022-10-20T15:22:07.825Z,100413.66
2022-10-20T15:24:36.617Z,100409.19
2022-10-20T15:27:05.517Z,100406.94
2022-10-20T15:29:34.047Z,100403.59
2022-10-20T15:32:02.641Z,100410.28
2022-10-20T15:34:30.615Z,100408.47
2022-10-20T15:36:58.875Z,100410.88
2022-10-20T15:39:27.389Z,100408.47
2022-10-20T15:41:55.176Z,100407.06
2022-10-20T15:44:23.574Z,100411.91
2022-10-20T15:46:53.567Z,100409.91
2022-10-20T15:49:21.400Z,100414.09
2022-10-20T15:51:50.595Z,100404.13
2022-10-20T15:54:20.802Z,100411.41
2022-10-20T15:56:48.760Z,100406.41
2022-10-20T15:59:16.251Z,100404.13
2022-10-20T16:01:44.035Z,100410.69
2022-10-20T16:04:23.242Z,100415.41
2022-10-20T16:06:57.913Z,100417.13
2022-10-20T16:09:28.264Z,100409.13
2022-10-20T16:11:56.002Z,100407.84
2022-10-20T16:14:23.980Z,100409.69
2022-10-20T16:16:51.763Z,100418.25
2022-10-20T16:19:19.377Z,100414.38
2022-10-20T16:22:06.831Z,100415.53
2022-10-20T16:24:56.182Z,100414.09
2022-10-20T16:27:43.643Z,100416.06
2022-10-20T16:30:31.281Z,100413.22
2022-10-20T16:33:18.659Z,100410.78
2022-10-20T16:35:46.381Z,100416.19
2022-10-20T16:38:13.997Z,100413.47
2022-10-20T16:40:42.614Z,100417.91
2022-10-20T16:43:10.601Z,100411.44
2022-10-20T16:45:39.544Z,100416.41
2022-10-20T16:48:07.092Z,100417.66
2022-10-20T16:50:34.868Z,100424.66
2022-10-20T16:53:02.280Z,100427.34
2022-10-20T16:55:29.819Z,100419.19
2022-10-20T16:57:57.702Z,100423.44
2022-10-20T17:00:25.226Z,100417.03
2022-10-20T17:02:56.303Z,100415.97
2022-10-20T17:05:26.499Z,100418.38
2022-10-20T17:07:55.399Z,100417.78
2022-10-20T17:10:23.149Z,100411.75
2022-10-20T17:12:51.189Z,100413.13
2022-10-20T17:15:18.685Z,100415.19
2022-10-20T17:17:46.289Z,100418.75
2022-10-20T17:20:14.366Z,100415.66
2022-10-20T17:22:41.907Z,100409.50
2022-10-20T17:25:09.774Z,100416.91
2022-10-20T17:27:37.690Z,100418.12
2022-10-20T17:30:05.873Z,100410.09
2022-10-20T17:32:33.467Z,100416.13
2022-10-20T17:35:01.393Z,100420.47
2022-10-20T17:37:28.979Z,100416.87
2022-10-20T17:39:57.695Z,100418.56
2022-10-20T17:42:25.574Z,100421.00
2022-10-20T17:44:53.242Z,100423.59
2022-10-20T17:47:22.040Z,100423.94
2022-10-20T17:49:49.937Z,100431.62
2022-10-20T17:52:17.951Z,100435.44
2022-10-20T17:54:45.606Z,100433.37
2022-10-20T17:57:13.559Z,100427.56
2022-10-20T17:59:52.461Z,100435.03
2022-10-20T18:02:23.795Z,100426.91
2022-10-20T18:04:52.382Z,100427.63
2022-10-20T18:07:19.929Z,100433.75
2022-10-20T18:09:47.645Z,100428.44
2022-10-20T18:12:16.791Z,100425.50
2022-10-20T18:14:44.823Z,100428.28
2022-10-20T18:17:13.594Z,100426.53
2022-10-20T18:19:41.620Z,100429.84
2022-10-20T18:22:09.230Z,100419.97
2022-10-20T18:24:37.357Z,100421.78
2022-10-20T18:27:05.980Z,100426.69
2022-10-20T18:29:33.658Z,100425.69
2022-10-20T18:32:01.320Z,100417.09
2022-10-20T18:34:29.039Z,100421.00
2022-10-20T18:36:56.685Z,100420.41
2022-10-20T18:39:24.459Z,100419.13
2022-10-20T18:41:54.112Z,100429.41
2022-10-20T18:44:22.008Z,100413.56
2022-10-20T18:46:51.254Z,100427.00
2022-10-20T18:49:21.469Z,100425.59
2022-10-20T18:51:49.925Z,100425.94
2022-10-20T18:54:21.300Z,100425.09
2022-10-20T18:56:49.586Z,100419.44
2022-10-20T18:59:17.922Z,100420.47
2022-10-20T19:01:45.827Z,100417.03
2022-10-20T19:04:13.982Z,100421.03
2022-10-20T19:06:43.843Z,100422.66
2022-10-20T19:09:20.680Z,100423.72
2022-10-20T19:11:51.859Z,100426.41
2022-10-20T19:14:19.523Z,100428.47
2022-10-20T19:16:48.713Z,100417.50
2022-10-20T19:19:17.244Z,100424.38
2022-10-20T19:21:45.219Z,100415.88
2022-10-20T19:24:21.485Z,100428.69
2022-10-20T19:27:14.490Z,100423.56
2022-10-20T19:29:43.636Z,100418.97
2022-10-20T19:32:12.208Z,100422.06
2022-10-20T19:34:40.842Z,100422.59
2022-10-20T19:37:09.707Z,100406.94
2022-10-20T19:39:40.181Z,100411.84
2022-10-20T19:42:08.371Z,100416.75
2022-10-20T19:44:36.207Z,100420.25
2022-10-20T19:47:05.179Z,100424.13
2022-10-20T19:49:32.873Z,100425.22
2022-10-20T19:52:00.566Z,100424.50
2022-10-20T19:54:28.578Z,100428.78
2022-10-20T19:56:56.534Z,100427.63
2022-10-20T19:59:24.260Z,100426.50
2022-10-20T20:01:52.806Z,100432.91
2022-10-20T20:04:20.819Z,100426.59
2022-10-20T20:06:48.592Z,100420.72
2022-10-20T20:09:16.083Z,100423.84
2022-10-20T20:11:44.364Z,100424.28
2022-10-20T20:14:17.743Z,100416.13
2022-10-20T20:16:46.551Z,100423.09
2022-10-20T20:19:16.516Z,100419.13
2022-10-20T20:21:44.171Z,100428.59
2022-10-20T20:24:13.545Z,100426.87
2022-10-20T20:26:41.199Z,100426.56
2022-10-20T20:29:09.740Z,100429.03
2022-10-20T20:31:37.548Z,100433.34
2022-10-20T20:34:05.407Z,100430.66
2022-10-20T20:36:32.935Z,100433.78
2022-10-20T20:39:01.271Z,100418.94
2022-10-20T20:41:30.337Z,100419.72
2022-10-20T20:43:57.838Z,100424.22
2022-10-20T20:46:29.243Z,100423.13
2022-10-20T20:48:57.578Z,100428.19
2022-10-20T20:51:26.961Z,100427.22
2022-10-20T20:53:55.117Z,100417.13
2022-10-20T20:56:23.364Z,100430.88
2022-10-20T20:58:55.255Z,100429.59
2022-10-20T21:01:27.493Z,100409.41
2022-10-20T21:03:56.676Z,100427.97
2022-10-20T21:06:33.157Z,100429.59
2022-10-20T21:09:01.907Z,100422.41
2022-10-20T21:11:29.674Z,100419.94
2022-10-20T21:13:59.051Z,100415.75
2022-10-20T21:16:32.711Z,100421.53
2022-10-20T21:19:05.174Z,100419.72
2022-10-20T21:21:35.247Z,100418.31
2022-10-20T21:24:04.453Z,100417.66
2022-10-20T21:26:32.481Z,100427.34
2022-10-20T21:29:00.314Z,100425.16
2022-10-20T21:31:29.082Z,100419.06
2022-10-20T21:33:59.644Z,100417.75
2022-10-20T21:36:28.841Z,100427.53
2022-10-20T21:38:56.529Z,100425.50
2022-10-20T21:41:26.531Z,100430.31
2022-10-20T21:43:56.615Z,100421.97
2022-10-20T21:46:31.467Z,100416.59
2022-10-20T21:49:01.867Z,100415.50
2022-10-20T21:51:34.192Z,100419.47
2022-10-20T21:54:04.535Z,100418.09
2022-10-20T21:56:36.303Z,100421.06
2022-10-20T21:59:05.518Z,100417.53
2022-10-20T22:01:33.388Z,100410.91
2022-10-20T22:04:01.181Z,100411.53
2022-10-20T22:06:28.579Z,100412.72
2022-10-20T22:08:57.787Z,100411.88
2022-10-20T22:11:31.822Z,100413.28
2022-10-20T22:13:59.471Z,100406.06
2022-10-20T22:16:29.289Z,100412.53
2022-10-20T22:19:04.045Z,100408.28
2022-10-20T22:21:32.158Z,100415.00
2022-10-20T22:24:00.511Z,100407.16
2022-10-20T22:26:29.520Z,100413.19
2022-10-20T22:28:58.242Z,100416.50
2022-10-20T22:31:25.989Z,100416.97
2022-10-20T22:33:55.541Z,100422.19
2022-10-20T22:36:23.844Z,100416.31
2022-10-20T22:38:51.398Z,100420.19
2022-10-20T22:41:18.861Z,100416.75
2022-10-20T22:43:47.014Z,100415.88
2022-10-20T22:46:15.963Z,100418.06
2022-10-20T22:48:44.187Z,100417.84
2022-10-20T22:51:12.383Z,100421.69
2022-10-20T22:53:39.807Z,100417.19
2022-10-20T22:56:10.120Z,100416.75
2022-10-20T22:58:38.498Z,100418.88
2022-10-20T23:01:10.489Z,100416.97
2022-10-20T23:03:38.775Z,100410.63
2022-10-20T23:06:08.043Z,100403.66
2022-10-20T23:08:40.378Z,100405.12
2022-10-20T23:11:08.231Z,100407.31
2022-10-20T23:13:35.764Z,100391.44
2022-10-20T23:16:03.801Z,100387.66
2022-10-20T23:18:31.752Z,100391.09
2022-10-20T23:20:59.269Z,100387.75
2022-10-20T23:23:26.823Z,100392.69
2022-10-20T23:25:54.827Z,100403.56
2022-10-20T23:28:22.273Z,100400.69
2022-10-20T23:30:49.769Z,100406.53
2022-10-20T23:33:17.558Z,100404.47
2022-10-20T23:35:46.765Z,100405.00
2022-10-20T23:38:14.201Z,100405.41
2022-10-20T23:40:41.915Z,100399.72
2022-10-20T23:43:09.332Z,100401.88
2022-10-20T23:45:37.762Z,100394.53
2022-10-20T23:48:05.683Z,100403.50
2022-10-20T23:50:33.095Z,100395.44
2022-10-20T23:53:00.571Z,100397.75
2022-10-20T23:55:28.494Z,100392.63
2022-10-20T23:57:56.013Z,100402.31
